Terminal Aerodrome Forecast
Issued by NWS Houston/Galveston, TX

Home | Current Version | Previous Version | Text Only | Print | Product List | Glossary On
Versions: 1 2 3 4 5 6 7 8 9 10 11 12 13 14 15 16 17 18 19 20 21 22 23 24 25 26 27 28 29 30 31 32 33 34 35 36 37 38 39 40 41
000
FTUS44 KHGX 231120
TAFGLS
TAF
KGLS 231120Z 2312/2412 35019G29KT P6SM SCT080 SCT100
     FM231500 35017KT P6SM FEW100
     FM240100 34010KT P6SM SKC
     FM240600 01006KT P6SM SKC=

USA.gov is the U.S. government's official web portal to all federal, state and local government web resources and services.